Weatherby Lake, Missouri
Current Conditions -  °F | °C
As of 6:53 PM on Sunday 23 Nov 2014 (Local Time) from KMCI Reporting Station
Light Rain Light Rain  
Wind Chill: 34°   Ceiling: 1400
Heat Index: 43°   Visibility: 10mi
Dew Point: 41°   Wind: 24mph
Humidity: 93%   Direction: 330°NNW
Pressure: 29.42"   Gusts: 36mph
Location:  39.2806°N, 94.7299°W
Report Text: KMCI 240053Z 33021G31KT 10SM -RA BKN014 BKN018 OVC060 06/05 A2942 RMK AO2 PK WND 34031/0048 SLP961 P0007 T00610050 $
Loading
Personal Weather Stations






























Interactive Weather Map New forecast layout! Learn more

10-Day Weather Forecast

Advertisements
Track Severe Weather on mobile